sensor_id;sensor_type;location;lat;lon;timestamp;temperature;humidity
59025;DHT22;44806;48.008;13.666;2023-03-04T00:02:20;3.70;99.90
59025;DHT22;44806;48.008;13.666;2023-03-04T00:04:47;3.70;99.90
59025;DHT22;44806;48.008;13.666;2023-03-04T00:07:14;3.60;99.90
59025;DHT22;44806;48.008;13.666;2023-03-04T00:09:41;3.50;99.90
59025;DHT22;44806;48.008;13.666;2023-03-04T00:12:11;3.50;99.90
59025;DHT22;44806;48.008;13.666;2023-03-04T00:14:38;3.40;99.90
59025;DHT22;44806;48.008;13.666;2023-03-04T00:17:05;3.50;99.90
59025;DHT22;44806;48.008;13.666;2023-03-04T00:19:33;3.40;99.90
59025;DHT22;44806;48.008;13.666;2023-03-04T00:22:00;3.40;99.90
59025;DHT22;44806;48.008;13.666;2023-03-04T00:24:28;3.40;99.90
59025;DHT22;44806;48.008;13.666;2023-03-04T00:26:55;3.40;99.90
59025;DHT22;44806;48.008;13.666;2023-03-04T00:29:22;3.40;99.90
59025;DHT22;44806;48.008;13.666;2023-03-04T00:31:49;3.40;99.90
59025;DHT22;44806;48.008;13.666;2023-03-04T00:34:16;3.40;99.90
59025;DHT22;44806;48.008;13.666;2023-03-04T00:36:44;3.40;99.90
59025;DHT22;44806;48.008;13.666;2023-03-04T00:39:11;3.30;99.90
59025;DHT22;44806;48.008;13.666;2023-03-04T00:41:38;3.20;99.90
59025;DHT22;44806;48.008;13.666;2023-03-04T00:44:06;3.20;99.90
59025;DHT22;44806;48.008;13.666;2023-03-04T00:46:33;3.20;99.90
59025;DHT22;44806;48.008;13.666;2023-03-04T00:49:00;3.20;99.90
59025;DHT22;44806;48.008;13.666;2023-03-04T00:51:27;3.20;99.90
59025;DHT22;44806;48.008;13.666;2023-03-04T00:53:55;3.30;99.90
59025;DHT22;44806;48.008;13.666;2023-03-04T00:56:22;3.30;99.90
59025;DHT22;44806;48.008;13.666;2023-03-04T00:58:49;3.20;99.90
59025;DHT22;44806;48.008;13.666;2023-03-04T01:01:16;3.20;99.90
59025;DHT22;44806;48.008;13.666;2023-03-04T01:03:43;3.20;99.90
59025;DHT22;44806;48.008;13.666;2023-03-04T01:06:10;3.20;99.90
59025;DHT22;44806;48.008;13.666;2023-03-04T01:08:37;3.20;99.90
59025;DHT22;44806;48.008;13.666;2023-03-04T01:11:06;3.20;99.90
59025;DHT22;44806;48.008;13.666;2023-03-04T01:13:33;3.20;99.90
59025;DHT22;44806;48.008;13.666;2023-03-04T01:16:00;3.20;99.90
59025;DHT22;44806;48.008;13.666;2023-03-04T01:18:28;3.20;99.90
59025;DHT22;44806;48.008;13.666;2023-03-04T01:20:55;3.10;99.90
59025;DHT22;44806;48.008;13.666;2023-03-04T01:23:23;3.20;99.90
59025;DHT22;44806;48.008;13.666;2023-03-04T01:25:50;3.10;99.90
59025;DHT22;44806;48.008;13.666;2023-03-04T01:28:18;3.10;99.90
59025;DHT22;44806;48.008;13.666;2023-03-04T01:30:45;3.10;99.90
59025;DHT22;44806;48.008;13.666;2023-03-04T01:33:12;3.00;99.90
59025;DHT22;44806;48.008;13.666;2023-03-04T01:35:39;2.90;99.90
59025;DHT22;44806;48.008;13.666;2023-03-04T01:38:06;2.90;99.90
59025;DHT22;44806;48.008;13.666;2023-03-04T01:40:33;2.90;99.90
59025;DHT22;44806;48.008;13.666;2023-03-04T01:43:00;2.80;99.90
59025;DHT22;44806;48.008;13.666;2023-03-04T01:45:29;2.80;99.90
59025;DHT22;44806;48.008;13.666;2023-03-04T01:47:57;2.80;99.90
59025;DHT22;44806;48.008;13.666;2023-03-04T01:50:29;2.80;99.90
59025;DHT22;44806;48.008;13.666;2023-03-04T01:52:56;2.70;99.90
59025;DHT22;44806;48.008;13.666;2023-03-04T01:55:24;2.70;99.90
59025;DHT22;44806;48.008;13.666;2023-03-04T01:57:51;2.70;99.90
59025;DHT22;44806;48.008;13.666;2023-03-04T02:00:22;2.70;99.90
59025;DHT22;44806;48.008;13.666;2023-03-04T02:02:53;2.70;99.90
59025;DHT22;44806;48.008;13.666;2023-03-04T02:05:21;2.60;99.90
59025;DHT22;44806;48.008;13.666;2023-03-04T02:07:50;2.60;99.90
59025;DHT22;44806;48.008;13.666;2023-03-04T02:10:17;2.60;99.90
59025;DHT22;44806;48.008;13.666;2023-03-04T02:12:44;2.70;99.90
59025;DHT22;44806;48.008;13.666;2023-03-04T02:15:11;2.70;99.90
59025;DHT22;44806;48.008;13.666;2023-03-04T02:17:39;2.60;99.90
59025;DHT22;44806;48.008;13.666;2023-03-04T02:20:15;2.60;99.90
59025;DHT22;44806;48.008;13.666;2023-03-04T02:22:51;2.60;99.90
59025;DHT22;44806;48.008;13.666;2023-03-04T02:25:23;2.60;99.90
59025;DHT22;44806;48.008;13.666;2023-03-04T02:27:54;2.50;99.90
59025;DHT22;44806;48.008;13.666;2023-03-04T02:30:23;2.50;99.90
59025;DHT22;44806;48.008;13.666;2023-03-04T02:32:51;2.40;99.90
59025;DHT22;44806;48.008;13.666;2023-03-04T02:35:18;2.40;99.90
59025;DHT22;44806;48.008;13.666;2023-03-04T02:37:45;2.40;99.90
59025;DHT22;44806;48.008;13.666;2023-03-04T02:40:15;2.40;99.90
59025;DHT22;44806;48.008;13.666;2023-03-04T02:42:44;2.30;99.90
59025;DHT22;44806;48.008;13.666;2023-03-04T02:45:38;2.30;99.90
59025;DHT22;44806;48.008;13.666;2023-03-04T02:48:06;2.30;99.90
59025;DHT22;44806;48.008;13.666;2023-03-04T02:50:36;2.30;99.90
59025;DHT22;44806;48.008;13.666;2023-03-04T02:53:04;2.30;99.90
59025;DHT22;44806;48.008;13.666;2023-03-04T02:55:31;2.30;99.90
59025;DHT22;44806;48.008;13.666;2023-03-04T02:57:58;2.30;99.90
59025;DHT22;44806;48.008;13.666;2023-03-04T03:00:25;2.30;99.90
59025;DHT22;44806;48.008;13.666;2023-03-04T03:02:54;2.20;99.90
59025;DHT22;44806;48.008;13.666;2023-03-04T03:05:22;2.20;99.90
59025;DHT22;44806;48.008;13.666;2023-03-04T03:07:50;2.20;99.90
59025;DHT22;44806;48.008;13.666;2023-03-04T03:10:17;2.10;99.90
59025;DHT22;44806;48.008;13.666;2023-03-04T03:12:44;2.10;99.90
59025;DHT22;44806;48.008;13.666;2023-03-04T03:15:11;2.10;99.90
59025;DHT22;44806;48.008;13.666;2023-03-04T03:17:38;2.10;99.90
59025;DHT22;44806;48.008;13.666;2023-03-04T03:20:09;2.10;99.90
59025;DHT22;44806;48.008;13.666;2023-03-04T03:22:37;2.10;99.90
59025;DHT22;44806;48.008;13.666;2023-03-04T03:25:05;2.10;99.90
59025;DHT22;44806;48.008;13.666;2023-03-04T03:27:32;2.10;99.90
59025;DHT22;44806;48.008;13.666;2023-03-04T03:29:59;2.20;99.90
59025;DHT22;44806;48.008;13.666;2023-03-04T03:32:26;2.10;99.90
59025;DHT22;44806;48.008;13.666;2023-03-04T03:34:53;2.10;99.90
59025;DHT22;44806;48.008;13.666;2023-03-04T03:37:21;2.10;99.90
59025;DHT22;44806;48.008;13.666;2023-03-04T03:39:48;2.10;99.90
59025;DHT22;44806;48.008;13.666;2023-03-04T03:42:15;2.10;99.90
59025;DHT22;44806;48.008;13.666;2023-03-04T03:44:42;2.20;99.90
59025;DHT22;44806;48.008;13.666;2023-03-04T03:47:09;2.20;99.90
59025;DHT22;44806;48.008;13.666;2023-03-04T03:49:36;2.20;99.90
59025;DHT22;44806;48.008;13.666;2023-03-04T03:52:03;2.20;99.90
59025;DHT22;44806;48.008;13.666;2023-03-04T03:54:31;2.20;99.90
59025;DHT22;44806;48.008;13.666;2023-03-04T03:56:58;2.20;99.90
59025;DHT22;44806;48.008;13.666;2023-03-04T03:59:25;2.20;99.90
59025;DHT22;44806;48.008;13.666;2023-03-04T04:01:52;2.20;99.90
59025;DHT22;44806;48.008;13.666;2023-03-04T04:04:19;2.20;99.90
59025;DHT22;44806;48.008;13.666;2023-03-04T04:06:46;2.10;99.90
59025;DHT22;44806;48.008;13.666;2023-03-04T04:09:13;2.10;99.90
59025;DHT22;44806;48.008;13.666;2023-03-04T04:11:41;2.20;99.90
59025;DHT22;44806;48.008;13.666;2023-03-04T04:14:10;2.20;99.90
59025;DHT22;44806;48.008;13.666;2023-03-04T04:16:37;2.20;99.90
59025;DHT22;44806;48.008;13.666;2023-03-04T04:19:04;2.30;99.90
59025;DHT22;44806;48.008;13.666;2023-03-04T04:21:31;2.30;99.90
59025;DHT22;44806;48.008;13.666;2023-03-04T04:23:58;2.30;99.90
59025;DHT22;44806;48.008;13.666;2023-03-04T04:26:25;2.30;99.90
59025;DHT22;44806;48.008;13.666;2023-03-04T04:28:53;2.30;99.90
59025;DHT22;44806;48.008;13.666;2023-03-04T04:31:20;2.30;99.90
59025;DHT22;44806;48.008;13.666;2023-03-04T04:33:47;2.40;99.90
59025;DHT22;44806;48.008;13.666;2023-03-04T04:36:14;2.40;99.90
59025;DHT22;44806;48.008;13.666;2023-03-04T04:38:42;2.50;99.90
59025;DHT22;44806;48.008;13.666;2023-03-04T04:41:18;2.50;99.90
59025;DHT22;44806;48.008;13.666;2023-03-04T04:43:46;2.50;99.90
59025;DHT22;44806;48.008;13.666;2023-03-04T04:46:15;2.50;99.90
59025;DHT22;44806;48.008;13.666;2023-03-04T04:48:43;2.50;99.90
59025;DHT22;44806;48.008;13.666;2023-03-04T04:51:10;2.60;99.90
59025;DHT22;44806;48.008;13.666;2023-03-04T04:53:37;2.60;99.90
59025;DHT22;44806;48.008;13.666;2023-03-04T04:56:08;2.60;99.90
59025;DHT22;44806;48.008;13.666;2023-03-04T04:58:36;2.60;99.90
59025;DHT22;44806;48.008;13.666;2023-03-04T05:01:04;2.60;99.90
59025;DHT22;44806;48.008;13.666;2023-03-04T05:03:34;2.70;99.90
59025;DHT22;44806;48.008;13.666;2023-03-04T05:06:01;2.70;99.90
59025;DHT22;44806;48.008;13.666;2023-03-04T05:08:29;2.70;99.90
59025;DHT22;44806;48.008;13.666;2023-03-04T05:10:56;2.70;99.90
59025;DHT22;44806;48.008;13.666;2023-03-04T05:13:23;2.70;99.90
59025;DHT22;44806;48.008;13.666;2023-03-04T05:15:51;2.70;99.90
59025;DHT22;44806;48.008;13.666;2023-03-04T05:18:18;2.80;99.90
59025;DHT22;44806;48.008;13.666;2023-03-04T05:20:50;2.90;99.90
59025;DHT22;44806;48.008;13.666;2023-03-04T05:23:18;2.80;99.90
59025;DHT22;44806;48.008;13.666;2023-03-04T05:25:45;2.90;99.90
59025;DHT22;44806;48.008;13.666;2023-03-04T05:28:13;2.90;99.90
59025;DHT22;44806;48.008;13.666;2023-03-04T05:30:42;3.00;99.90
59025;DHT22;44806;48.008;13.666;2023-03-04T05:33:10;3.00;99.90
59025;DHT22;44806;48.008;13.666;2023-03-04T05:35:39;3.10;99.90
59025;DHT22;44806;48.008;13.666;2023-03-04T05:38:09;3.10;99.90
59025;DHT22;44806;48.008;13.666;2023-03-04T05:40:37;3.10;99.90
59025;DHT22;44806;48.008;13.666;2023-03-04T05:43:04;3.10;99.90
59025;DHT22;44806;48.008;13.666;2023-03-04T05:45:32;3.10;99.90
59025;DHT22;44806;48.008;13.666;2023-03-04T05:47:59;3.20;99.90
59025;DHT22;44806;48.008;13.666;2023-03-04T05:50:27;3.20;99.90
59025;DHT22;44806;48.008;13.666;2023-03-04T05:52:54;3.30;99.90
59025;DHT22;44806;48.008;13.666;2023-03-04T05:55:26;3.30;99.90
59025;DHT22;44806;48.008;13.666;2023-03-04T05:57:54;3.30;99.90
59025;DHT22;44806;48.008;13.666;2023-03-04T06:00:21;3.30;99.90
59025;DHT22;44806;48.008;13.666;2023-03-04T06:02:48;3.40;99.90
59025;DHT22;44806;48.008;13.666;2023-03-04T06:05:16;3.40;99.90
59025;DHT22;44806;48.008;13.666;2023-03-04T06:07:43;3.40;99.90
59025;DHT22;44806;48.008;13.666;2023-03-04T06:10:12;3.40;99.90
59025;DHT22;44806;48.008;13.666;2023-03-04T06:12:40;3.50;99.90
59025;DHT22;44806;48.008;13.666;2023-03-04T06:15:08;3.50;99.90
59025;DHT22;44806;48.008;13.666;2023-03-04T06:17:36;3.60;99.90
59025;DHT22;44806;48.008;13.666;2023-03-04T06:20:05;3.60;99.90
59025;DHT22;44806;48.008;13.666;2023-03-04T06:22:32;3.70;99.90
59025;DHT22;44806;48.008;13.666;2023-03-04T06:24:59;3.70;99.90
59025;DHT22;44806;48.008;13.666;2023-03-04T06:27:26;3.70;99.90
59025;DHT22;44806;48.008;13.666;2023-03-04T06:29:55;3.70;99.90
59025;DHT22;44806;48.008;13.666;2023-03-04T06:32:22;3.80;99.90
59025;DHT22;44806;48.008;13.666;2023-03-04T06:34:49;3.80;99.90
59025;DHT22;44806;48.008;13.666;2023-03-04T06:37:16;3.90;99.90
59025;DHT22;44806;48.008;13.666;2023-03-04T06:39:44;3.90;99.90
59025;DHT22;44806;48.008;13.666;2023-03-04T06:42:11;4.00;99.90
59025;DHT22;44806;48.008;13.666;2023-03-04T06:44:39;4.00;99.90
59025;DHT22;44806;48.008;13.666;2023-03-04T06:47:07;4.00;99.90
59025;DHT22;44806;48.008;13.666;2023-03-04T06:49:34;4.10;99.90
59025;DHT22;44806;48.008;13.666;2023-03-04T06:52:01;4.10;99.90
59025;DHT22;44806;48.008;13.666;2023-03-04T06:54:28;4.10;99.90
59025;DHT22;44806;48.008;13.666;2023-03-04T06:56:55;4.20;99.90
59025;DHT22;44806;48.008;13.666;2023-03-04T06:59:22;4.20;99.90
59025;DHT22;44806;48.008;13.666;2023-03-04T07:01:49;4.30;99.90
59025;DHT22;44806;48.008;13.666;2023-03-04T07:04:17;4.30;99.90
59025;DHT22;44806;48.008;13.666;2023-03-04T07:06:44;4.40;99.90
59025;DHT22;44806;48.008;13.666;2023-03-04T07:09:11;4.40;99.90
59025;DHT22;44806;48.008;13.666;2023-03-04T07:11:38;4.40;99.90
59025;DHT22;44806;48.008;13.666;2023-03-04T07:14:05;4.50;99.90
59025;DHT22;44806;48.008;13.666;2023-03-04T07:16:32;4.50;99.90
59025;DHT22;44806;48.008;13.666;2023-03-04T07:19:00;4.50;99.90
59025;DHT22;44806;48.008;13.666;2023-03-04T07:21:28;4.60;99.90
59025;DHT22;44806;48.008;13.666;2023-03-04T07:23:56;4.60;99.90
59025;DHT22;44806;48.008;13.666;2023-03-04T07:26:23;4.60;99.90
59025;DHT22;44806;48.008;13.666;2023-03-04T07:28:50;4.70;99.90
59025;DHT22;44806;48.008;13.666;2023-03-04T07:31:22;4.70;99.90
59025;DHT22;44806;48.008;13.666;2023-03-04T07:33:49;4.70;99.90
59025;DHT22;44806;48.008;13.666;2023-03-04T07:36:16;4.70;99.90
59025;DHT22;44806;48.008;13.666;2023-03-04T07:38:46;4.70;99.90
59025;DHT22;44806;48.008;13.666;2023-03-04T07:41:15;4.80;99.90
59025;DHT22;44806;48.008;13.666;2023-03-04T07:43:42;4.80;99.90
59025;DHT22;44806;48.008;13.666;2023-03-04T07:46:09;4.80;99.90
59025;DHT22;44806;48.008;13.666;2023-03-04T07:48:36;4.90;99.90
59025;DHT22;44806;48.008;13.666;2023-03-04T07:51:08;4.90;99.90
59025;DHT22;44806;48.008;13.666;2023-03-04T07:53:36;4.90;99.90
59025;DHT22;44806;48.008;13.666;2023-03-04T07:56:07;4.90;99.90
59025;DHT22;44806;48.008;13.666;2023-03-04T07:58:36;4.90;99.90
59025;DHT22;44806;48.008;13.666;2023-03-04T08:01:08;5.00;99.90
59025;DHT22;44806;48.008;13.666;2023-03-04T08:03:35;5.00;99.90
59025;DHT22;44806;48.008;13.666;2023-03-04T08:06:04;5.00;99.90
59025;DHT22;44806;48.008;13.666;2023-03-04T08:08:31;5.10;99.90
59025;DHT22;44806;48.008;13.666;2023-03-04T08:10:58;5.10;99.90
59025;DHT22;44806;48.008;13.666;2023-03-04T08:13:26;5.00;99.90
59025;DHT22;44806;48.008;13.666;2023-03-04T08:15:54;5.10;99.90
59025;DHT22;44806;48.008;13.666;2023-03-04T08:18:22;5.20;99.90
59025;DHT22;44806;48.008;13.666;2023-03-04T08:20:49;5.20;99.90
59025;DHT22;44806;48.008;13.666;2023-03-04T08:23:16;5.20;99.90
59025;DHT22;44806;48.008;13.666;2023-03-04T08:25:43;5.30;99.90
59025;DHT22;44806;48.008;13.666;2023-03-04T08:28:11;5.30;99.90
59025;DHT22;44806;48.008;13.666;2023-03-04T08:30:40;5.30;99.90
59025;DHT22;44806;48.008;13.666;2023-03-04T08:33:08;5.40;99.90
59025;DHT22;44806;48.008;13.666;2023-03-04T08:35:36;5.40;99.90
59025;DHT22;44806;48.008;13.666;2023-03-04T08:38:04;5.50;99.90
59025;DHT22;44806;48.008;13.666;2023-03-04T08:40:32;5.60;99.90
59025;DHT22;44806;48.008;13.666;2023-03-04T08:42:58;5.70;99.90
59025;DHT22;44806;48.008;13.666;2023-03-04T08:45:26;5.60;99.90
59025;DHT22;44806;48.008;13.666;2023-03-04T08:47:55;5.70;99.90
59025;DHT22;44806;48.008;13.666;2023-03-04T08:50:22;5.80;99.90
59025;DHT22;44806;48.008;13.666;2023-03-04T08:52:49;5.80;99.90
59025;DHT22;44806;48.008;13.666;2023-03-04T08:55:16;5.70;99.90
59025;DHT22;44806;48.008;13.666;2023-03-04T08:57:43;5.60;99.90
59025;DHT22;44806;48.008;13.666;2023-03-04T09:00:11;5.70;99.90
59025;DHT22;44806;48.008;13.666;2023-03-04T09:02:38;5.60;99.90
59025;DHT22;44806;48.008;13.666;2023-03-04T09:05:07;5.70;99.90
59025;DHT22;44806;48.008;13.666;2023-03-04T09:07:35;5.80;99.90
59025;DHT22;44806;48.008;13.666;2023-03-04T09:10:02;5.90;99.90
59025;DHT22;44806;48.008;13.666;2023-03-04T09:12:29;5.90;99.90
59025;DHT22;44806;48.008;13.666;2023-03-04T09:14:56;5.90;99.90
59025;DHT22;44806;48.008;13.666;2023-03-04T09:17:23;5.90;99.90
59025;DHT22;44806;48.008;13.666;2023-03-04T09:19:50;5.90;99.90
59025;DHT22;44806;48.008;13.666;2023-03-04T09:22:18;6.00;99.90
59025;DHT22;44806;48.008;13.666;2023-03-04T09:24:45;6.00;99.90
59025;DHT22;44806;48.008;13.666;2023-03-04T09:27:12;6.10;99.90
59025;DHT22;44806;48.008;13.666;2023-03-04T09:29:39;6.00;99.90
59025;DHT22;44806;48.008;13.666;2023-03-04T09:32:07;6.00;99.90
59025;DHT22;44806;48.008;13.666;2023-03-04T09:34:34;6.10;99.90
59025;DHT22;44806;48.008;13.666;2023-03-04T09:37:01;6.10;99.90
59025;DHT22;44806;48.008;13.666;2023-03-04T09:39:30;6.10;99.90
59025;DHT22;44806;48.008;13.666;2023-03-04T09:41:59;6.20;99.90
59025;DHT22;44806;48.008;13.666;2023-03-04T09:44:29;6.20;99.90
59025;DHT22;44806;48.008;13.666;2023-03-04T09:47:03;6.30;99.90
59025;DHT22;44806;48.008;13.666;2023-03-04T09:49:31;6.30;99.90
59025;DHT22;44806;48.008;13.666;2023-03-04T09:52:02;6.40;99.90
59025;DHT22;44806;48.008;13.666;2023-03-04T09:54:49;6.30;99.90
59025;DHT22;44806;48.008;13.666;2023-03-04T09:57:25;6.30;99.90
59025;DHT22;44806;48.008;13.666;2023-03-04T10:00:02;6.30;99.90
59025;DHT22;44806;48.008;13.666;2023-03-04T10:02:42;6.40;99.90
59025;DHT22;44806;48.008;13.666;2023-03-04T10:05:13;6.60;99.90
59025;DHT22;44806;48.008;13.666;2023-03-04T10:07:47;6.60;99.90
59025;DHT22;44806;48.008;13.666;2023-03-04T10:10:23;6.60;99.90
59025;DHT22;44806;48.008;13.666;2023-03-04T10:12:52;6.80;99.90
59025;DHT22;44806;48.008;13.666;2023-03-04T10:15:25;6.80;99.90
59025;DHT22;44806;48.008;13.666;2023-03-04T10:18:00;6.80;99.90
59025;DHT22;44806;48.008;13.666;2023-03-04T10:20:36;6.80;99.90
59025;DHT22;44806;48.008;13.666;2023-03-04T10:23:09;7.00;99.90
59025;DHT22;44806;48.008;13.666;2023-03-04T10:25:43;7.00;99.90
59025;DHT22;44806;48.008;13.666;2023-03-04T10:28:14;6.90;99.90
59025;DHT22;44806;48.008;13.666;2023-03-04T10:30:47;6.90;99.90
59025;DHT22;44806;48.008;13.666;2023-03-04T10:33:17;7.00;99.30
59025;DHT22;44806;48.008;13.666;2023-03-04T10:35:47;6.90;99.00
59025;DHT22;44806;48.008;13.666;2023-03-04T10:38:18;6.80;98.40
59025;DHT22;44806;48.008;13.666;2023-03-04T10:40:47;7.00;98.60
59025;DHT22;44806;48.008;13.666;2023-03-04T10:43:16;7.00;96.70
59025;DHT22;44806;48.008;13.666;2023-03-04T10:45:44;7.20;95.90
59025;DHT22;44806;48.008;13.666;2023-03-04T10:48:19;7.30;96.30
59025;DHT22;44806;48.008;13.666;2023-03-04T10:50:47;7.40;97.10
59025;DHT22;44806;48.008;13.666;2023-03-04T10:53:32;7.50;95.70
59025;DHT22;44806;48.008;13.666;2023-03-04T10:56:30;7.50;94.80
59025;DHT22;44806;48.008;13.666;2023-03-04T10:59:28;7.40;95.00
59025;DHT22;44806;48.008;13.666;2023-03-04T11:01:56;7.50;94.30
59025;DHT22;44806;48.008;13.666;2023-03-04T11:04:25;7.40;93.30
59025;DHT22;44806;48.008;13.666;2023-03-04T11:06:53;7.30;92.60
59025;DHT22;44806;48.008;13.666;2023-03-04T11:09:22;7.50;93.70
59025;DHT22;44806;48.008;13.666;2023-03-04T11:11:54;7.70;94.30
59025;DHT22;44806;48.008;13.666;2023-03-04T11:14:26;7.70;93.30
59025;DHT22;44806;48.008;13.666;2023-03-04T11:16:57;7.60;90.80
59025;DHT22;44806;48.008;13.666;2023-03-04T11:19:29;7.60;91.60
59025;DHT22;44806;48.008;13.666;2023-03-04T11:21:57;7.60;91.60
59025;DHT22;44806;48.008;13.666;2023-03-04T11:24:27;7.70;91.70
59025;DHT22;44806;48.008;13.666;2023-03-04T11:27:00;7.90;92.60
59025;DHT22;44806;48.008;13.666;2023-03-04T11:29:32;7.90;90.90
59025;DHT22;44806;48.008;13.666;2023-03-04T11:32:04;8.00;91.90
59025;DHT22;44806;48.008;13.666;2023-03-04T11:34:38;7.90;91.30
59025;DHT22;44806;48.008;13.666;2023-03-04T11:37:11;8.10;92.90
59025;DHT22;44806;48.008;13.666;2023-03-04T11:39:43;8.30;92.10
59025;DHT22;44806;48.008;13.666;2023-03-04T11:42:22;8.20;91.20
59025;DHT22;44806;48.008;13.666;2023-03-04T11:44:52;8.40;91.60
59025;DHT22;44806;48.008;13.666;2023-03-04T11:50:28;8.50;90.10
59025;DHT22;44806;48.008;13.666;2023-03-04T11:55:58;8.80;89.90
59025;DHT22;44806;48.008;13.666;2023-03-04T11:58:46;8.90;90.10
59025;DHT22;44806;48.008;13.666;2023-03-04T12:01:22;9.20;91.80
59025;DHT22;44806;48.008;13.666;2023-03-04T12:04:03;9.10;90.20
59025;DHT22;44806;48.008;13.666;2023-03-04T12:06:43;9.20;89.60
59025;DHT22;44806;48.008;13.666;2023-03-04T12:09:21;9.20;86.60
59025;DHT22;44806;48.008;13.666;2023-03-04T12:11:57;9.10;88.30
59025;DHT22;44806;48.008;13.666;2023-03-04T12:14:34;9.10;86.70
59025;DHT22;44806;48.008;13.666;2023-03-04T12:20:13;9.00;86.90
59025;DHT22;44806;48.008;13.666;2023-03-04T12:22:45;9.10;87.80
59025;DHT22;44806;48.008;13.666;2023-03-04T12:25:23;9.00;87.40
59025;DHT22;44806;48.008;13.666;2023-03-04T12:28:02;9.10;89.10
59025;DHT22;44806;48.008;13.666;2023-03-04T12:30:40;9.30;88.30
59025;DHT22;44806;48.008;13.666;2023-03-04T12:33:20;9.40;87.50
59025;DHT22;44806;48.008;13.666;2023-03-04T12:35:53;9.30;88.70
59025;DHT22;44806;48.008;13.666;2023-03-04T12:38:38;9.30;88.80
59025;DHT22;44806;48.008;13.666;2023-03-04T12:41:22;9.30;87.60
59025;DHT22;44806;48.008;13.666;2023-03-04T12:43:59;9.50;87.20
59025;DHT22;44806;48.008;13.666;2023-03-04T12:46:40;9.50;88.40
59025;DHT22;44806;48.008;13.666;2023-03-04T12:52:21;9.50;88.80
59025;DHT22;44806;48.008;13.666;2023-03-04T12:54:54;9.60;87.40
59025;DHT22;44806;48.008;13.666;2023-03-04T12:57:24;9.50;87.80
59025;DHT22;44806;48.008;13.666;2023-03-04T12:59:59;9.60;86.80
59025;DHT22;44806;48.008;13.666;2023-03-04T13:02:49;9.70;87.50
59025;DHT22;44806;48.008;13.666;2023-03-04T13:05:40;9.80;84.80
59025;DHT22;44806;48.008;13.666;2023-03-04T13:08:16;9.90;87.60
59025;DHT22;44806;48.008;13.666;2023-03-04T13:10:46;9.70;87.40
59025;DHT22;44806;48.008;13.666;2023-03-04T13:13:34;9.90;87.00
59025;DHT22;44806;48.008;13.666;2023-03-04T13:16:20;9.90;88.20
59025;DHT22;44806;48.008;13.666;2023-03-04T13:18:51;10.00;86.50
59025;DHT22;44806;48.008;13.666;2023-03-04T13:21:23;9.90;84.20
59025;DHT22;44806;48.008;13.666;2023-03-04T13:23:51;10.00;85.20
59025;DHT22;44806;48.008;13.666;2023-03-04T13:26:27;9.90;84.90
59025;DHT22;44806;48.008;13.666;2023-03-04T13:32:03;9.80;82.80
59025;DHT22;44806;48.008;13.666;2023-03-04T13:34:49;9.70;83.10
59025;DHT22;44806;48.008;13.666;2023-03-04T13:37:32;9.70;84.20
59025;DHT22;44806;48.008;13.666;2023-03-04T13:40:33;9.50;81.10
59025;DHT22;44806;48.008;13.666;2023-03-04T13:43:23;9.30;81.30
59025;DHT22;44806;48.008;13.666;2023-03-04T13:45:50;9.20;80.70
59025;DHT22;44806;48.008;13.666;2023-03-04T13:48:27;9.10;80.90
59025;DHT22;44806;48.008;13.666;2023-03-04T13:50:57;9.20;80.50
59025;DHT22;44806;48.008;13.666;2023-03-04T13:53:41;9.30;82.20
59025;DHT22;44806;48.008;13.666;2023-03-04T13:56:20;9.40;81.50
59025;DHT22;44806;48.008;13.666;2023-03-04T13:58:50;9.30;81.10
59025;DHT22;44806;48.008;13.666;2023-03-04T14:01:24;9.30;81.50
59025;DHT22;44806;48.008;13.666;2023-03-04T14:03:52;9.40;81.10
59025;DHT22;44806;48.008;13.666;2023-03-04T14:06:24;9.40;81.20
59025;DHT22;44806;48.008;13.666;2023-03-04T14:08:52;9.50;78.60
59025;DHT22;44806;48.008;13.666;2023-03-04T14:11:26;9.60;81.30
59025;DHT22;44806;48.008;13.666;2023-03-04T14:13:54;9.60;76.30
59025;DHT22;44806;48.008;13.666;2023-03-04T14:16:25;9.60;78.00
59025;DHT22;44806;48.008;13.666;2023-03-04T14:19:02;9.60;79.30
59025;DHT22;44806;48.008;13.666;2023-03-04T14:21:30;9.60;78.90
59025;DHT22;44806;48.008;13.666;2023-03-04T14:24:07;9.70;78.20
59025;DHT22;44806;48.008;13.666;2023-03-04T14:26:36;9.50;78.40
59025;DHT22;44806;48.008;13.666;2023-03-04T14:29:21;9.70;81.00
59025;DHT22;44806;48.008;13.666;2023-03-04T14:31:49;9.80;80.00
59025;DHT22;44806;48.008;13.666;2023-03-04T14:34:22;9.80;78.90
59025;DHT22;44806;48.008;13.666;2023-03-04T14:36:51;9.70;78.70
59025;DHT22;44806;48.008;13.666;2023-03-04T14:39:19;9.80;79.60
59025;DHT22;44806;48.008;13.666;2023-03-04T14:41:49;9.80;78.70
59025;DHT22;44806;48.008;13.666;2023-03-04T14:44:24;9.60;78.70
59025;DHT22;44806;48.008;13.666;2023-03-04T14:46:57;9.50;79.10
59025;DHT22;44806;48.008;13.666;2023-03-04T14:49:26;9.60;79.30
59025;DHT22;44806;48.008;13.666;2023-03-04T14:51:55;9.60;79.80
59025;DHT22;44806;48.008;13.666;2023-03-04T14:54:28;9.60;79.20
59025;DHT22;44806;48.008;13.666;2023-03-04T14:56:56;9.50;80.40
59025;DHT22;44806;48.008;13.666;2023-03-04T14:59:30;9.60;80.50
59025;DHT22;44806;48.008;13.666;2023-03-04T15:02:19;9.70;81.50
59025;DHT22;44806;48.008;13.666;2023-03-04T15:04:47;9.60;80.50
59025;DHT22;44806;48.008;13.666;2023-03-04T15:07:20;9.50;79.30
59025;DHT22;44806;48.008;13.666;2023-03-04T15:09:52;9.60;81.40
59025;DHT22;44806;48.008;13.666;2023-03-04T15:12:26;9.70;80.20
59025;DHT22;44806;48.008;13.666;2023-03-04T15:14:54;9.60;79.50
59025;DHT22;44806;48.008;13.666;2023-03-04T15:17:24;9.50;81.50
59025;DHT22;44806;48.008;13.666;2023-03-04T15:20:00;9.40;80.30
59025;DHT22;44806;48.008;13.666;2023-03-04T15:22:29;9.30;80.60
59025;DHT22;44806;48.008;13.666;2023-03-04T15:24:56;9.20;81.00
59025;DHT22;44806;48.008;13.666;2023-03-04T15:27:24;9.30;80.70
59025;DHT22;44806;48.008;13.666;2023-03-04T15:29:52;9.30;81.00
59025;DHT22;44806;48.008;13.666;2023-03-04T15:32:21;9.20;82.30
59025;DHT22;44806;48.008;13.666;2023-03-04T15:34:48;9.10;81.30
59025;DHT22;44806;48.008;13.666;2023-03-04T15:37:19;9.20;83.40
59025;DHT22;44806;48.008;13.666;2023-03-04T15:39:48;8.80;83.30
59025;DHT22;44806;48.008;13.666;2023-03-04T15:42:15;8.60;85.20
59025;DHT22;44806;48.008;13.666;2023-03-04T15:44:42;8.00;86.80
59025;DHT22;44806;48.008;13.666;2023-03-04T15:47:09;7.70;89.10
59025;DHT22;44806;48.008;13.666;2023-03-04T15:49:39;7.70;89.30
59025;DHT22;44806;48.008;13.666;2023-03-04T15:52:08;7.50;89.50
59025;DHT22;44806;48.008;13.666;2023-03-04T15:54:39;7.40;90.10
59025;DHT22;44806;48.008;13.666;2023-03-04T15:57:15;7.40;90.40
59025;DHT22;44806;48.008;13.666;2023-03-04T15:59:44;7.30;90.60
59025;DHT22;44806;48.008;13.666;2023-03-04T16:02:15;7.10;90.80
59025;DHT22;44806;48.008;13.666;2023-03-04T16:04:44;7.10;91.00